sensor_id;sensor_type;location;lat;lon;timestamp;temperature;humidity
40622;DHT22;26324;52.040;11.528;2022-09-01T00:01:14;15.40;68.60
40622;DHT22;26324;52.040;11.528;2022-09-01T00:03:45;15.40;68.60
40622;DHT22;26324;52.040;11.528;2022-09-01T00:06:14;15.30;68.60
40622;DHT22;26324;52.040;11.528;2022-09-01T00:08:39;15.30;69.20
40622;DHT22;26324;52.040;11.528;2022-09-01T00:11:05;15.20;69.00
40622;DHT22;26324;52.040;11.528;2022-09-01T00:13:30;15.20;69.50
40622;DHT22;26324;52.040;11.528;2022-09-01T00:15:59;15.20;69.90
40622;DHT22;26324;52.040;11.528;2022-09-01T00:18:25;15.20;69.40
40622;DHT22;26324;52.040;11.528;2022-09-01T00:20:50;15.10;69.30
40622;DHT22;26324;52.040;11.528;2022-09-01T00:23:16;15.10;69.40
40622;DHT22;26324;52.040;11.528;2022-09-01T00:25:41;15.20;69.90
40622;DHT22;26324;52.040;11.528;2022-09-01T00:28:07;15.10;69.70
40622;DHT22;26324;52.040;11.528;2022-09-01T00:30:32;15.10;70.00
40622;DHT22;26324;52.040;11.528;2022-09-01T00:32:58;15.10;70.00
40622;DHT22;26324;52.040;11.528;2022-09-01T00:35:24;15.00;70.00
40622;DHT22;26324;52.040;11.528;2022-09-01T00:37:49;15.00;70.50
40622;DHT22;26324;52.040;11.528;2022-09-01T00:40:16;15.00;70.70
40622;DHT22;26324;52.040;11.528;2022-09-01T00:42:41;14.90;70.60
40622;DHT22;26324;52.040;11.528;2022-09-01T00:45:09;14.80;71.10
40622;DHT22;26324;52.040;11.528;2022-09-01T00:47:35;14.70;70.90
40622;DHT22;26324;52.040;11.528;2022-09-01T00:50:05;14.70;71.10
40622;DHT22;26324;52.040;11.528;2022-09-01T00:52:32;14.70;71.10
40622;DHT22;26324;52.040;11.528;2022-09-01T00:55:07;14.60;70.90
40622;DHT22;26324;52.040;11.528;2022-09-01T00:57:34;14.60;70.70
40622;DHT22;26324;52.040;11.528;2022-09-01T01:00:09;14.50;71.50
40622;DHT22;26324;52.040;11.528;2022-09-01T01:02:37;14.40;71.40
40622;DHT22;26324;52.040;11.528;2022-09-01T01:05:04;14.40;71.80
40622;DHT22;26324;52.040;11.528;2022-09-01T01:07:30;14.30;72.20
40622;DHT22;26324;52.040;11.528;2022-09-01T01:09:57;14.30;72.60
40622;DHT22;26324;52.040;11.528;2022-09-01T01:12:23;14.20;72.90
40622;DHT22;26324;52.040;11.528;2022-09-01T01:14:49;14.20;73.50
40622;DHT22;26324;52.040;11.528;2022-09-01T01:17:20;14.10;73.20
40622;DHT22;26324;52.040;11.528;2022-09-01T01:19:49;14.10;73.30
40622;DHT22;26324;52.040;11.528;2022-09-01T01:23:11;14.10;73.00
40622;DHT22;26324;52.040;11.528;2022-09-01T01:25:42;14.10;73.10
40622;DHT22;26324;52.040;11.528;2022-09-01T01:28:24;14.00;73.00
40622;DHT22;26324;52.040;11.528;2022-09-01T01:31:15;14.00;73.30
40622;DHT22;26324;52.040;11.528;2022-09-01T01:33:51;14.00;72.90
40622;DHT22;26324;52.040;11.528;2022-09-01T01:36:20;13.90;73.50
40622;DHT22;26324;52.040;11.528;2022-09-01T01:38:55;13.90;73.70
40622;DHT22;26324;52.040;11.528;2022-09-01T01:41:26;13.80;74.10
40622;DHT22;26324;52.040;11.528;2022-09-01T01:43:51;13.70;74.40
40622;DHT22;26324;52.040;11.528;2022-09-01T01:46:17;13.70;75.00
40622;DHT22;26324;52.040;11.528;2022-09-01T01:48:43;13.70;75.10
40622;DHT22;26324;52.040;11.528;2022-09-01T01:51:09;13.70;75.50
40622;DHT22;26324;52.040;11.528;2022-09-01T01:53:36;13.70;75.80
40622;DHT22;26324;52.040;11.528;2022-09-01T01:56:02;13.80;75.90
40622;DHT22;26324;52.040;11.528;2022-09-01T01:58:29;13.80;76.00
40622;DHT22;26324;52.040;11.528;2022-09-01T02:00:56;13.80;75.60
40622;DHT22;26324;52.040;11.528;2022-09-01T02:03:26;13.80;75.40
40622;DHT22;26324;52.040;11.528;2022-09-01T02:05:54;13.80;76.00
40622;DHT22;26324;52.040;11.528;2022-09-01T02:08:22;13.80;76.10
40622;DHT22;26324;52.040;11.528;2022-09-01T02:10:52;13.90;76.00
40622;DHT22;26324;52.040;11.528;2022-09-01T02:13:21;13.90;76.30
40622;DHT22;26324;52.040;11.528;2022-09-01T02:15:56;13.80;75.90
40622;DHT22;26324;52.040;11.528;2022-09-01T02:18:25;14.00;76.10
40622;DHT22;26324;52.040;11.528;2022-09-01T02:20:52;14.00;76.10
40622;DHT22;26324;52.040;11.528;2022-09-01T02:23:20;14.00;75.70
40622;DHT22;26324;52.040;11.528;2022-09-01T02:25:48;14.00;75.90
40622;DHT22;26324;52.040;11.528;2022-09-01T02:28:16;14.10;76.20
40622;DHT22;26324;52.040;11.528;2022-09-01T02:30:43;14.10;75.50
40622;DHT22;26324;52.040;11.528;2022-09-01T02:33:12;14.10;75.80
40622;DHT22;26324;52.040;11.528;2022-09-01T02:35:49;14.10;76.00
40622;DHT22;26324;52.040;11.528;2022-09-01T02:38:15;14.10;76.00
40622;DHT22;26324;52.040;11.528;2022-09-01T02:40:42;14.10;75.80
40622;DHT22;26324;52.040;11.528;2022-09-01T02:43:13;14.10;75.70
40622;DHT22;26324;52.040;11.528;2022-09-01T02:45:41;14.10;76.20
40622;DHT22;26324;52.040;11.528;2022-09-01T02:48:08;14.00;76.20
40622;DHT22;26324;52.040;11.528;2022-09-01T02:50:35;14.00;76.90
40622;DHT22;26324;52.040;11.528;2022-09-01T02:53:02;13.80;77.40
40622;DHT22;26324;52.040;11.528;2022-09-01T02:55:31;13.90;77.30
40622;DHT22;26324;52.040;11.528;2022-09-01T02:57:57;14.00;77.40
40622;DHT22;26324;52.040;11.528;2022-09-01T03:00:23;14.10;77.40
40622;DHT22;26324;52.040;11.528;2022-09-01T03:03:06;14.10;77.00
40622;DHT22;26324;52.040;11.528;2022-09-01T03:05:33;14.20;76.60
40622;DHT22;26324;52.040;11.528;2022-09-01T03:08:06;14.20;76.80
40622;DHT22;26324;52.040;11.528;2022-09-01T03:10:39;14.10;77.20
40622;DHT22;26324;52.040;11.528;2022-09-01T03:13:15;14.20;77.40
40622;DHT22;26324;52.040;11.528;2022-09-01T03:15:41;14.30;77.30
40622;DHT22;26324;52.040;11.528;2022-09-01T03:18:08;14.20;77.10
40622;DHT22;26324;52.040;11.528;2022-09-01T03:20:36;14.30;77.10
40622;DHT22;26324;52.040;11.528;2022-09-01T03:23:05;14.30;77.10
40622;DHT22;26324;52.040;11.528;2022-09-01T03:25:34;14.40;77.00
40622;DHT22;26324;52.040;11.528;2022-09-01T03:28:00;14.40;76.70
40622;DHT22;26324;52.040;11.528;2022-09-01T03:30:29;14.40;76.70
40622;DHT22;26324;52.040;11.528;2022-09-01T03:32:56;14.40;76.70
40622;DHT22;26324;52.040;11.528;2022-09-01T03:35:23;14.30;76.80
40622;DHT22;26324;52.040;11.528;2022-09-01T03:37:49;14.40;77.00
40622;DHT22;26324;52.040;11.528;2022-09-01T03:40:15;14.40;77.00
40622;DHT22;26324;52.040;11.528;2022-09-01T03:42:44;14.50;76.80
40622;DHT22;26324;52.040;11.528;2022-09-01T03:45:11;14.50;76.50
40622;DHT22;26324;52.040;11.528;2022-09-01T03:47:41;14.50;76.70
40622;DHT22;26324;52.040;11.528;2022-09-01T03:50:15;14.50;77.00
40622;DHT22;26324;52.040;11.528;2022-09-01T03:52:53;14.50;76.60
40622;DHT22;26324;52.040;11.528;2022-09-01T03:55:22;14.50;76.70
40622;DHT22;26324;52.040;11.528;2022-09-01T03:57:49;14.50;76.80
40622;DHT22;26324;52.040;11.528;2022-09-01T04:00:16;14.50;76.60
40622;DHT22;26324;52.040;11.528;2022-09-01T04:02:52;14.70;76.40
40622;DHT22;26324;52.040;11.528;2022-09-01T04:05:18;14.70;76.50
40622;DHT22;26324;52.040;11.528;2022-09-01T04:07:47;14.70;76.30
40622;DHT22;26324;52.040;11.528;2022-09-01T04:10:14;14.70;76.30
40622;DHT22;26324;52.040;11.528;2022-09-01T04:12:40;14.70;75.70
40622;DHT22;26324;52.040;11.528;2022-09-01T04:15:06;14.80;76.10
40622;DHT22;26324;52.040;11.528;2022-09-01T04:17:32;14.70;75.70
40622;DHT22;26324;52.040;11.528;2022-09-01T04:20:17;14.80;75.50
40622;DHT22;26324;52.040;11.528;2022-09-01T04:22:45;14.70;75.50
40622;DHT22;26324;52.040;11.528;2022-09-01T04:25:12;14.70;75.30
40622;DHT22;26324;52.040;11.528;2022-09-01T04:27:39;14.80;75.40
40622;DHT22;26324;52.040;11.528;2022-09-01T04:30:06;14.80;74.90
40622;DHT22;26324;52.040;11.528;2022-09-01T04:32:35;14.90;74.40
40622;DHT22;26324;52.040;11.528;2022-09-01T04:35:03;14.90;74.10
40622;DHT22;26324;52.040;11.528;2022-09-01T04:37:29;14.80;74.10
40622;DHT22;26324;52.040;11.528;2022-09-01T04:39:55;14.90;74.00
40622;DHT22;26324;52.040;11.528;2022-09-01T04:42:22;14.90;73.50
40622;DHT22;26324;52.040;11.528;2022-09-01T04:44:50;14.90;73.30
40622;DHT22;26324;52.040;11.528;2022-09-01T04:47:23;15.00;72.80
40622;DHT22;26324;52.040;11.528;2022-09-01T04:49:59;15.00;72.60
40622;DHT22;26324;52.040;11.528;2022-09-01T04:52:26;15.10;72.40
40622;DHT22;26324;52.040;11.528;2022-09-01T04:54:53;15.10;72.00
40622;DHT22;26324;52.040;11.528;2022-09-01T04:57:20;15.10;71.50
40622;DHT22;26324;52.040;11.528;2022-09-01T04:59:46;15.10;71.60
40622;DHT22;26324;52.040;11.528;2022-09-01T05:02:11;15.20;71.60
40622;DHT22;26324;52.040;11.528;2022-09-01T05:04:37;15.20;71.30
40622;DHT22;26324;52.040;11.528;2022-09-01T05:07:06;15.30;70.90
40622;DHT22;26324;52.040;11.528;2022-09-01T05:09:34;15.30;70.90
40622;DHT22;26324;52.040;11.528;2022-09-01T05:12:00;15.30;70.80
40622;DHT22;26324;52.040;11.528;2022-09-01T05:14:39;15.40;70.40
40622;DHT22;26324;52.040;11.528;2022-09-01T05:17:08;15.40;70.10
40622;DHT22;26324;52.040;11.528;2022-09-01T05:19:40;15.50;69.70
40622;DHT22;26324;52.040;11.528;2022-09-01T05:22:07;15.50;70.00
40622;DHT22;26324;52.040;11.528;2022-09-01T05:24:35;15.50;69.80
40622;DHT22;26324;52.040;11.528;2022-09-01T05:27:02;15.60;69.30
40622;DHT22;26324;52.040;11.528;2022-09-01T05:29:28;15.60;69.30
40622;DHT22;26324;52.040;11.528;2022-09-01T05:31:55;15.70;68.70
40622;DHT22;26324;52.040;11.528;2022-09-01T05:34:21;15.80;68.40
40622;DHT22;26324;52.040;11.528;2022-09-01T05:36:53;15.80;68.00
40622;DHT22;26324;52.040;11.528;2022-09-01T05:39:20;15.90;67.80
40622;DHT22;26324;52.040;11.528;2022-09-01T05:41:46;15.90;68.00
40622;DHT22;26324;52.040;11.528;2022-09-01T05:44:14;16.00;67.70
40622;DHT22;26324;52.040;11.528;2022-09-01T05:46:41;15.90;68.00
40622;DHT22;26324;52.040;11.528;2022-09-01T05:49:09;16.00;67.50
40622;DHT22;26324;52.040;11.528;2022-09-01T05:51:41;16.00;67.00
40622;DHT22;26324;52.040;11.528;2022-09-01T05:54:07;16.00;67.10
40622;DHT22;26324;52.040;11.528;2022-09-01T05:56:34;16.10;66.60
40622;DHT22;26324;52.040;11.528;2022-09-01T05:59:03;16.10;66.60
40622;DHT22;26324;52.040;11.528;2022-09-01T06:01:28;16.10;66.70
40622;DHT22;26324;52.040;11.528;2022-09-01T06:03:59;16.20;66.50
40622;DHT22;26324;52.040;11.528;2022-09-01T06:06:33;16.20;66.90
40622;DHT22;26324;52.040;11.528;2022-09-01T06:09:05;16.40;66.40
40622;DHT22;26324;52.040;11.528;2022-09-01T06:11:31;16.50;65.80
40622;DHT22;26324;52.040;11.528;2022-09-01T06:14:00;16.60;64.60
40622;DHT22;26324;52.040;11.528;2022-09-01T06:16:27;16.70;64.40
40622;DHT22;26324;52.040;11.528;2022-09-01T06:18:54;16.90;63.10
40622;DHT22;26324;52.040;11.528;2022-09-01T06:21:22;16.90;63.10
40622;DHT22;26324;52.040;11.528;2022-09-01T06:23:50;17.10;62.60
40622;DHT22;26324;52.040;11.528;2022-09-01T06:26:29;17.20;61.80
40622;DHT22;26324;52.040;11.528;2022-09-01T06:28:57;17.40;61.00
40622;DHT22;26324;52.040;11.528;2022-09-01T06:31:24;17.60;60.90
40622;DHT22;26324;52.040;11.528;2022-09-01T06:33:51;17.80;59.70
40622;DHT22;26324;52.040;11.528;2022-09-01T06:36:19;18.00;59.20
40622;DHT22;26324;52.040;11.528;2022-09-01T06:38:46;18.30;59.10
40622;DHT22;26324;52.040;11.528;2022-09-01T06:41:12;18.50;58.20
40622;DHT22;26324;52.040;11.528;2022-09-01T06:43:39;18.70;57.70
40622;DHT22;26324;52.040;11.528;2022-09-01T06:46:06;18.90;57.20
40622;DHT22;26324;52.040;11.528;2022-09-01T06:48:32;18.90;56.50
40622;DHT22;26324;52.040;11.528;2022-09-01T06:51:00;19.00;56.60
40622;DHT22;26324;52.040;11.528;2022-09-01T06:53:28;19.10;54.60
40622;DHT22;26324;52.040;11.528;2022-09-01T06:55:56;19.00;53.50
40622;DHT22;26324;52.040;11.528;2022-09-01T06:58:22;19.00;54.20
40622;DHT22;26324;52.040;11.528;2022-09-01T07:00:48;19.00;54.20
40622;DHT22;26324;52.040;11.528;2022-09-01T07:03:14;19.00;54.50
40622;DHT22;26324;52.040;11.528;2022-09-01T07:05:41;19.00;54.20
40622;DHT22;26324;52.040;11.528;2022-09-01T07:08:10;18.90;53.30
40622;DHT22;26324;52.040;11.528;2022-09-01T07:10:43;19.00;53.40
40622;DHT22;26324;52.040;11.528;2022-09-01T07:13:14;18.90;53.10
40622;DHT22;26324;52.040;11.528;2022-09-01T07:15:44;18.90;52.30
40622;DHT22;26324;52.040;11.528;2022-09-01T07:18:12;19.00;51.40
40622;DHT22;26324;52.040;11.528;2022-09-01T07:20:40;19.00;52.10
40622;DHT22;26324;52.040;11.528;2022-09-01T07:23:07;19.10;51.90
40622;DHT22;26324;52.040;11.528;2022-09-01T07:25:37;19.20;51.00
40622;DHT22;26324;52.040;11.528;2022-09-01T07:28:05;19.30;50.30
40622;DHT22;26324;52.040;11.528;2022-09-01T07:30:31;19.40;49.70
40622;DHT22;26324;52.040;11.528;2022-09-01T07:32:58;19.60;49.80
40622;DHT22;26324;52.040;11.528;2022-09-01T07:35:24;19.70;49.10
40622;DHT22;26324;52.040;11.528;2022-09-01T07:37:49;19.70;48.70
40622;DHT22;26324;52.040;11.528;2022-09-01T07:40:18;19.90;48.80
40622;DHT22;26324;52.040;11.528;2022-09-01T07:42:46;20.10;46.70
40622;DHT22;26324;52.040;11.528;2022-09-01T07:45:13;20.00;46.10
40622;DHT22;26324;52.040;11.528;2022-09-01T07:47:41;20.00;46.00
40622;DHT22;26324;52.040;11.528;2022-09-01T07:50:08;20.00;46.90
40622;DHT22;26324;52.040;11.528;2022-09-01T07:52:35;20.20;45.90
40622;DHT22;26324;52.040;11.528;2022-09-01T07:55:03;20.20;47.00
40622;DHT22;26324;52.040;11.528;2022-09-01T07:57:30;20.40;46.80
40622;DHT22;26324;52.040;11.528;2022-09-01T07:59:56;20.60;46.60
40622;DHT22;26324;52.040;11.528;2022-09-01T08:02:21;20.60;46.40
40622;DHT22;26324;52.040;11.528;2022-09-01T08:04:48;20.70;44.10
40622;DHT22;26324;52.040;11.528;2022-09-01T08:07:14;20.70;45.40
40622;DHT22;26324;52.040;11.528;2022-09-01T08:09:40;20.90;45.80
40622;DHT22;26324;52.040;11.528;2022-09-01T08:12:07;21.00;45.30
40622;DHT22;26324;52.040;11.528;2022-09-01T08:14:33;21.10;44.40
40622;DHT22;26324;52.040;11.528;2022-09-01T08:16:58;21.00;44.20
40622;DHT22;26324;52.040;11.528;2022-09-01T08:19:24;20.90;42.90
40622;DHT22;26324;52.040;11.528;2022-09-01T08:21:49;21.00;43.40
40622;DHT22;26324;52.040;11.528;2022-09-01T08:24:15;21.10;43.30
40622;DHT22;26324;52.040;11.528;2022-09-01T08:26:41;21.10;44.80
40622;DHT22;26324;52.040;11.528;2022-09-01T08:29:07;21.30;43.40
40622;DHT22;26324;52.040;11.528;2022-09-01T08:31:32;21.40;42.90
40622;DHT22;26324;52.040;11.528;2022-09-01T08:34:00;21.50;42.80
40622;DHT22;26324;52.040;11.528;2022-09-01T08:36:28;21.60;43.50
40622;DHT22;26324;52.040;11.528;2022-09-01T08:38:54;21.60;42.40
40622;DHT22;26324;52.040;11.528;2022-09-01T08:41:40;21.50;41.50
40622;DHT22;26324;52.040;11.528;2022-09-01T08:45:19;21.50;42.30
40622;DHT22;26324;52.040;11.528;2022-09-01T08:47:25;21.60;42.50
40622;DHT22;26324;52.040;11.528;2022-09-01T08:49:50;21.80;42.30
40622;DHT22;26324;52.040;11.528;2022-09-01T08:52:33;22.00;40.40
40622;DHT22;26324;52.040;11.528;2022-09-01T08:55:09;21.70;41.30
40622;DHT22;26324;52.040;11.528;2022-09-01T08:57:39;21.70;42.90
40622;DHT22;26324;52.040;11.528;2022-09-01T09:00:08;21.70;42.80
40622;DHT22;26324;52.040;11.528;2022-09-01T09:02:47;21.90;42.00
40622;DHT22;26324;52.040;11.528;2022-09-01T09:05:32;22.00;42.80
40622;DHT22;26324;52.040;11.528;2022-09-01T09:11:03;22.50;40.50
40622;DHT22;26324;52.040;11.528;2022-09-01T09:16:18;22.70;41.20
40622;DHT22;26324;52.040;11.528;2022-09-01T09:18:51;23.00;40.90
40622;DHT22;26324;52.040;11.528;2022-09-01T09:21:24;23.20;40.50
40622;DHT22;26324;52.040;11.528;2022-09-01T09:23:59;23.30;40.20
40622;DHT22;26324;52.040;11.528;2022-09-01T09:26:29;23.30;39.10
40622;DHT22;26324;52.040;11.528;2022-09-01T09:28:55;23.40;38.70
40622;DHT22;26324;52.040;11.528;2022-09-01T09:31:36;23.50;39.60
40622;DHT22;26324;52.040;11.528;2022-09-01T09:34:31;23.60;37.70
40622;DHT22;26324;52.040;11.528;2022-09-01T09:39:44;23.40;37.80
40622;DHT22;26324;52.040;11.528;2022-09-01T09:42:13;23.00;38.50
40622;DHT22;26324;52.040;11.528;2022-09-01T09:44:46;23.20;38.30
40622;DHT22;26324;52.040;11.528;2022-09-01T09:47:34;23.40;39.00
40622;DHT22;26324;52.040;11.528;2022-09-01T09:50:24;23.60;37.70
40622;DHT22;26324;52.040;11.528;2022-09-01T09:52:51;23.70;36.50
40622;DHT22;26324;52.040;11.528;2022-09-01T09:55:22;23.80;37.40
40622;DHT22;26324;52.040;11.528;2022-09-01T09:57:50;23.80;38.00
40622;DHT22;26324;52.040;11.528;2022-09-01T10:00:27;24.10;36.60
40622;DHT22;26324;52.040;11.528;2022-09-01T10:02:57;24.20;35.70
40622;DHT22;26324;52.040;11.528;2022-09-01T10:08:08;24.50;34.60
40622;DHT22;26324;52.040;11.528;2022-09-01T10:10:43;24.40;35.20
40622;DHT22;26324;52.040;11.528;2022-09-01T10:13:16;24.50;36.30
40622;DHT22;26324;52.040;11.528;2022-09-01T10:15:47;24.70;35.70
40622;DHT22;26324;52.040;11.528;2022-09-01T10:18:34;24.90;36.10
40622;DHT22;26324;52.040;11.528;2022-09-01T10:21:03;25.00;34.70
40622;DHT22;26324;52.040;11.528;2022-09-01T10:23:33;24.90;35.20
40622;DHT22;26324;52.040;11.528;2022-09-01T10:28:52;25.10;34.60
40622;DHT22;26324;52.040;11.528;2022-09-01T10:31:20;25.10;33.20
40622;DHT22;26324;52.040;11.528;2022-09-01T10:33:47;25.10;33.90
40622;DHT22;26324;52.040;11.528;2022-09-01T10:36:15;25.10;34.70
40622;DHT22;26324;52.040;11.528;2022-09-01T10:38:41;25.30;33.60
40622;DHT22;26324;52.040;11.528;2022-09-01T10:41:07;25.40;32.60
40622;DHT22;26324;52.040;11.528;2022-09-01T10:46:07;25.30;31.80
40622;DHT22;26324;52.040;11.528;2022-09-01T10:48:33;25.40;33.00
40622;DHT22;26324;52.040;11.528;2022-09-01T10:53:55;25.80;30.70
40622;DHT22;26324;52.040;11.528;2022-09-01T10:56:44;25.60;32.00
40622;DHT22;26324;52.040;11.528;2022-09-01T10:59:25;25.80;31.70
40622;DHT22;26324;52.040;11.528;2022-09-01T11:10:20;26.10;31.70
40622;DHT22;26324;52.040;11.528;2022-09-01T11:15:36;26.60;29.80
40622;DHT22;26324;52.040;11.528;2022-09-01T11:18:07;26.60;28.00
40622;DHT22;26324;52.040;11.528;2022-09-01T11:20:38;26.40;27.60
40622;DHT22;26324;52.040;11.528;2022-09-01T11:25:47;26.50;28.30
40622;DHT22;26324;52.040;11.528;2022-09-01T11:36:34;26.30;28.70
40622;DHT22;26324;52.040;11.528;2022-09-01T11:41:57;26.40;29.10
40622;DHT22;26324;52.040;11.528;2022-09-01T11:47:29;26.80;28.50
40622;DHT22;26324;52.040;11.528;2022-09-01T11:49:58;26.70;28.40
40622;DHT22;26324;52.040;11.528;2022-09-01T11:52:28;27.00;27.50
40622;DHT22;26324;52.040;11.528;2022-09-01T11:54:54;26.80;28.10
40622;DHT22;26324;52.040;11.528;2022-09-01T11:59:52;27.10;27.70
40622;DHT22;26324;52.040;11.528;2022-09-01T12:02:20;27.10;27.70
40622;DHT22;26324;52.040;11.528;2022-09-01T12:04:47;27.10;26.80
40622;DHT22;26324;52.040;11.528;2022-09-01T12:07:25;27.10;26.90
40622;DHT22;26324;52.040;11.528;2022-09-01T12:09:52;27.20;26.30
40622;DHT22;26324;52.040;11.528;2022-09-01T12:15:04;27.50;27.30
40622;DHT22;26324;52.040;11.528;2022-09-01T12:17:31;27.60;27.10
40622;DHT22;26324;52.040;11.528;2022-09-01T12:20:18;27.90;26.60
40622;DHT22;26324;52.040;11.528;2022-09-01T12:22:45;27.60;26.20
40622;DHT22;26324;52.040;11.528;2022-09-01T12:25:22;27.60;26.40
40622;DHT22;26324;52.040;11.528;2022-09-01T12:27:49;27.80;27.30
40622;DHT22;26324;52.040;11.528;2022-09-01T12:30:18;28.00;26.30
40622;DHT22;26324;52.040;11.528;2022-09-01T12:32:44;28.10;25.70
40622;DHT22;26324;52.040;11.528;2022-09-01T12:35:19;28.20;26.40
40622;DHT22;26324;52.040;11.528;2022-09-01T12:37:46;28.50;25.60
40622;DHT22;26324;52.040;11.528;2022-09-01T12:40:24;28.10;24.80
40622;DHT22;26324;52.040;11.528;2022-09-01T12:42:51;27.50;25.70
40622;DHT22;26324;52.040;11.528;2022-09-01T12:45:39;27.10;27.50
40622;DHT22;26324;52.040;11.528;2022-09-01T12:48:05;27.50;28.30
40622;DHT22;26324;52.040;11.528;2022-09-01T12:50:34;27.90;26.80
40622;DHT22;26324;52.040;11.528;2022-09-01T12:53:02;28.30;27.20
40622;DHT22;26324;52.040;11.528;2022-09-01T12:55:32;28.70;27.20
40622;DHT22;26324;52.040;11.528;2022-09-01T12:58:09;29.30;26.20
40622;DHT22;26324;52.040;11.528;2022-09-01T13:00:53;29.50;26.50
40622;DHT22;26324;52.040;11.528;2022-09-01T13:03:20;29.80;25.80
40622;DHT22;26324;52.040;11.528;2022-09-01T13:06:06;30.00;25.70
40622;DHT22;26324;52.040;11.528;2022-09-01T13:08:33;29.50;24.70
40622;DHT22;26324;52.040;11.528;2022-09-01T13:11:07;28.80;26.10
40622;DHT22;26324;52.040;11.528;2022-09-01T13:13:34;28.70;26.60
40622;DHT22;26324;52.040;11.528;2022-09-01T13:16:02;29.00;26.90
40622;DHT22;26324;52.040;11.528;2022-09-01T13:18:37;29.20;26.30
40622;DHT22;26324;52.040;11.528;2022-09-01T13:21:03;29.60;24.60
40622;DHT22;26324;52.040;11.528;2022-09-01T13:23:29;30.40;25.10
40622;DHT22;26324;52.040;11.528;2022-09-01T13:25:55;31.40;24.20
40622;DHT22;26324;52.040;11.528;2022-09-01T13:28:25;32.40;22.70
40622;DHT22;26324;52.040;11.528;2022-09-01T13:30:57;33.40;21.40
40622;DHT22;26324;52.040;11.528;2022-09-01T13:33:25;34.10;21.10
40622;DHT22;26324;52.040;11.528;2022-09-01T13:35:52;34.80;20.10
40622;DHT22;26324;52.040;11.528;2022-09-01T13:38:19;34.30;19.60
40622;DHT22;26324;52.040;11.528;2022-09-01T13:40:47;33.00;20.80
40622;DHT22;26324;52.040;11.528;2022-09-01T13:43:20;31.10;22.50
40622;DHT22;26324;52.040;11.528;2022-09-01T13:45:46;29.80;23.80
40622;DHT22;26324;52.040;11.528;2022-09-01T13:48:14;28.40;26.00
40622;DHT22;26324;52.040;11.528;2022-09-01T13:50:40;29.40;26.30
40622;DHT22;26324;52.040;11.528;2022-09-01T13:53:06;31.60;23.10
40622;DHT22;26324;52.040;11.528;2022-09-01T13:55:35;33.10;22.00
40622;DHT22;26324;52.040;11.528;2022-09-01T13:58:02;33.30;21.60
40622;DHT22;26324;52.040;11.528;2022-09-01T14:00:31;32.10;22.00
40622;DHT22;26324;52.040;11.528;2022-09-01T14:03:00;30.80;22.90
40622;DHT22;26324;52.040;11.528;2022-09-01T14:05:29;29.20;25.10
40622;DHT22;26324;52.040;11.528;2022-09-01T14:07:55;28.10;25.70
40622;DHT22;26324;52.040;11.528;2022-09-01T14:10:22;27.70;27.10
40622;DHT22;26324;52.040;11.528;2022-09-01T14:12:49;29.80;24.40
40622;DHT22;26324;52.040;11.528;2022-09-01T14:15:16;32.10;23.10
40622;DHT22;26324;52.040;11.528;2022-09-01T14:17:42;34.30;20.60
40622;DHT22;26324;52.040;11.528;2022-09-01T14:20:13;36.40;18.20
40622;DHT22;26324;52.040;11.528;2022-09-01T14:22:39;38.00;17.40
40622;DHT22;26324;52.040;11.528;2022-09-01T14:25:08;38.60;16.20
40622;DHT22;26324;52.040;11.528;2022-09-01T14:27:34;38.80;16.30
40622;DHT22;26324;52.040;11.528;2022-09-01T14:30:00;38.60;16.00
40622;DHT22;26324;52.040;11.528;2022-09-01T14:32:26;39.40;16.10
40622;DHT22;26324;52.040;11.528;2022-09-01T14:34:55;39.70;15.50
40622;DHT22;26324;52.040;11.528;2022-09-01T14:37:22;39.80;15.20
40622;DHT22;26324;52.040;11.528;2022-09-01T14:39:55;39.80;15.80
40622;DHT22;26324;52.040;11.528;2022-09-01T14:42:22;40.70;15.30
40622;DHT22;26324;52.040;11.528;2022-09-01T14:44:50;40.20;14.50
40622;DHT22;26324;52.040;11.528;2022-09-01T14:47:17;37.70;16.00
40622;DHT22;26324;52.040;11.528;2022-09-01T14:49:43;35.80;18.60
40622;DHT22;26324;52.040;11.528;2022-09-01T14:52:09;34.00;19.90
40622;DHT22;26324;52.040;11.528;2022-09-01T14:54:39;31.80;21.40
40622;DHT22;26324;52.040;11.528;2022-09-01T14:57:07;30.00;23.90
40622;DHT22;26324;52.040;11.528;2022-09-01T14:59:33;29.70;24.10
40622;DHT22;26324;52.040;11.528;2022-09-01T15:01:59;31.90;21.90
40622;DHT22;26324;52.040;11.528;2022-09-01T15:04:25;34.20;19.70
40622;DHT22;26324;52.040;11.528;2022-09-01T15:06:52;36.30;17.70
40622;DHT22;26324;52.040;11.528;2022-09-01T15:09:19;37.50;16.20
40622;DHT22;26324;52.040;11.528;2022-09-01T15:11:45;38.70;15.80
40622;DHT22;26324;52.040;11.528;2022-09-01T15:14:10;39.50;15.30
40622;DHT22;26324;52.040;11.528;2022-09-01T15:16:36;40.50;14.40
40622;DHT22;26324;52.040;11.528;2022-09-01T15:19:09;41.30;14.40
40622;DHT22;26324;52.040;11.528;2022-09-01T15:21:37;41.70;14.30
40622;DHT22;26324;52.040;11.528;2022-09-01T15:24:04;42.00;14.10
40622;DHT22;26324;52.040;11.528;2022-09-01T15:26:31;41.10;14.60
40622;DHT22;26324;52.040;11.528;2022-09-01T15:28:57;41.40;14.70
40622;DHT22;26324;52.040;11.528;2022-09-01T15:31:24;41.50;14.30
40622;DHT22;26324;52.040;11.528;2022-09-01T15:33:54;42.10;14.40
40622;DHT22;26324;52.040;11.528;2022-09-01T15:36:22;42.50;13.50
40622;DHT22;26324;52.040;11.528;2022-09-01T15:38:55;40.70;14.10
40622;DHT22;26324;52.040;11.528;2022-09-01T15:41:28;37.80;16.20
40622;DHT22;26324;52.040;11.528;2022-09-01T15:43:56;35.00;18.30
40622;DHT22;26324;52.040;11.528;2022-09-01T15:46:23;32.60;20.10
40622;DHT22;26324;52.040;11.528;2022-09-01T15:48:56;31.00;22.50
40622;DHT22;26324;52.040;11.528;2022-09-01T15:53:53;29.10;25.10
40622;DHT22;26324;52.040;11.528;2022-09-01T15:56:19;30.50;23.90
40622;DHT22;26324;52.040;11.528;2022-09-01T15:58:45;33.10;21.50
40622;DHT22;26324;52.040;11.528;2022-09-01T16:01:11;35.80;18.40
40622;DHT22;26324;52.040;11.528;2022-09-01T16:03:37;37.50;17.10
40622;DHT22;26324;52.040;11.528;2022-09-01T16:06:03;38.90;16.20
40622;DHT22;26324;52.040;11.528;2022-09-01T16:08:29;39.80;15.40
40622;DHT22;26324;52.040;11.528;2022-09-01T16:10:54;40.50;14.70
40622;DHT22;26324;52.040;11.528;2022-09-01T16:13:21;40.60;14.00
40622;DHT22;26324;52.040;11.528;2022-09-01T16:18:38;40.00;15.00
40622;DHT22;26324;52.040;11.528;2022-09-01T16:21:17;39.60;15.70
40622;DHT22;26324;52.040;11.528;2022-09-01T16:23:46;39.10;15.60
40622;DHT22;26324;52.040;11.528;2022-09-01T16:26:14;39.20;15.90